Saint Francisville, IL

7:47 PM CST on February 10, 2016 (GMT -0600)
Mount Carmel Municipal

Weather History for KAJG - November, 2013

Change the Weather History Date:

Tuesday, November 19, 2013

  Actual Average (KLWV) Record (KLWV)
Temperature  
Mean Temperature 39 °F 45 °F  
Max Temperature 46 °F 54 °F 69 °F (2007)
Min Temperature 32 °F 36 °F 14 °F (2014)
Degree Days  
Heating Degree Days 26 20  
Month to date heating degree days 310  
Since 1 July heating degree days 607  
Cooling Degree Days 0 0  
Month to date cooling degree days 0  
Year to date cooling degree days 1386  
Moisture  
Dew Point 31 °F    
Average Humidity 78    
Maximum Humidity 93    
Minimum Humidity 53    
Precipitation  
Precipitation 0.00 in 0.14 in 1.70 in (1985)
Month to date precipitation 2.42  
Year to date precipitation 38.94  
Sea Level Pressure  
Sea Level Pressure 30.31 in    
Wind  
Wind Speed 4 mph (NNE)    
Max Wind Speed 9 mph    
Max Gust Speed -    
Visibility 9 miles    
Events      
T = Trace of Precipitation, MM = Missing Value Source: NWS Daily Summary

Daily Weather History Graph

Daily Weather History Graph

Search for Another Location

Airport or City:

Trip Planner

Search our weather history database for the weather conditions in past years. The results will help you decide how hot, cold, wet, or windy it might be!

Date:

Astronomy

Nov. 19, 2013 Rise Set
Actual Time 6:37 AM CST 4:34 PM CST
Civil Twilight 6:08 AM CST 5:03 PM CST
Nautical Twilight 5:36 AM CST 5:35 PM CST
Astronomical Twilight 5:05 AM CST 6:07 PM CST
Moon 6:25 PM CST (11/19) 8:16 AM CST (11/19)
Length of Visible Light 10h 54m
Length of Day
9h 57m
Waning Gibbous, 96% of the Moon is Illuminated
Nov 19
Waning Gibbous
Nov 25
Last Quarter
Dec 2
New
Dec 9
First Quarter
Dec 17
Full

Hourly Weather History & Observations

Time (CST) Temp. Windchill Dew Point Humidity Pressure Visibility Wind Dir Wind Speed Gust Speed Precip Events Conditions
12:15 AM 37.4 °F 33.8 °F 30.2 °F 75% 30.29 in 10.0 mi NW 4.6 mph - N/A   Clear
12:35 AM 35.6 °F 31.7 °F 30.2 °F 81% 30.30 in 10.0 mi NW 4.6 mph - N/A   Clear
12:55 AM 35.6 °F - 30.2 °F 81% 30.30 in 10.0 mi Calm Calm - N/A   Clear
1:15 AM 33.8 °F - 30.2 °F 87% 30.30 in 10.0 mi Calm Calm - N/A   Clear
1:35 AM 35.6 °F - 30.2 °F 81% 30.30 in 10.0 mi Calm Calm - N/A   Clear
1:55 AM 33.8 °F - 30.2 °F 87% 30.31 in 10.0 mi Calm Calm - N/A   Clear
2:15 AM 33.8 °F 30.8 °F 32.0 °F 93% 30.31 in 10.0 mi NNW 3.5 mph - N/A   Clear
2:35 AM 33.8 °F 29.6 °F 30.2 °F 87% 30.31 in 10.0 mi NW 4.6 mph - N/A   Clear
2:55 AM 32.0 °F 26.4 °F 30.2 °F 93% 30.30 in 10.0 mi North 5.8 mph - N/A   Clear
3:15 AM 32.0 °F 26.4 °F 30.2 °F 93% 30.31 in 10.0 mi NNW 5.8 mph - N/A   Clear
3:35 AM 33.8 °F 27.7 °F 30.2 °F 87% 30.31 in 10.0 mi NNW 6.9 mph - N/A   Clear
3:55 AM 33.8 °F 28.6 °F 30.2 °F 87% 30.31 in 10.0 mi NNW 5.8 mph - N/A   Clear
4:15 AM 33.8 °F 27.7 °F 30.2 °F 87% 30.31 in 10.0 mi North 6.9 mph - N/A   Clear
4:35 AM 33.8 °F 27.7 °F 30.2 °F 87% 30.31 in 10.0 mi North 6.9 mph - N/A   Clear
4:55 AM 33.8 °F 27.7 °F 30.2 °F 87% 30.31 in 10.0 mi North 6.9 mph - N/A   Clear
5:15 AM 33.8 °F 28.6 °F 30.2 °F 87% 30.32 in 10.0 mi North 5.8 mph - N/A   Clear
5:35 AM 33.8 °F 29.6 °F 30.2 °F 87% 30.32 in 10.0 mi NNW 4.6 mph - N/A   Clear
5:55 AM 32.0 °F 28.7 °F 30.2 °F 93% 30.33 in 10.0 mi North 3.5 mph - N/A   Clear
6:15 AM 32.0 °F 27.5 °F 30.2 °F 93% 30.33 in 10.0 mi North 4.6 mph - N/A   Clear
6:35 AM 32.0 °F 28.7 °F 28.4 °F 87% 30.34 in 10.0 mi North 3.5 mph - N/A   Clear
6:55 AM 32.0 °F - 28.4 °F 87% 30.34 in 10.0 mi Calm Calm - N/A   Clear
7:15 AM 32.0 °F 28.7 °F 30.2 °F 93% 30.34 in 10.0 mi NNW 3.5 mph - N/A   Clear
7:35 AM 32.0 °F - 30.2 °F 93% 30.35 in 10.0 mi Calm Calm - N/A   Clear
7:55 AM 33.8 °F - 30.2 °F 87% 30.35 in 10.0 mi Calm Calm - N/A   Clear
8:15 AM 33.8 °F 28.6 °F 30.2 °F 87% 30.35 in 10.0 mi North 5.8 mph - N/A   Clear
8:35 AM 35.6 °F 32.8 °F 32.0 °F 87% 30.36 in 10.0 mi NNE 3.5 mph - N/A   Clear
8:55 AM 35.6 °F 29.9 °F 32.0 °F 87% 30.37 in 10.0 mi NE 6.9 mph - N/A   Scattered Clouds
9:15 AM 35.6 °F 29.2 °F 32.0 °F 87% 30.37 in 10.0 mi NE 8.1 mph - N/A   Clear
9:35 AM 37.4 °F 31.4 °F 32.0 °F 81% 30.36 in 10.0 mi ENE 8.1 mph - N/A   Clear
9:55 AM 39.2 °F 33.6 °F 32.0 °F 75% 30.37 in 10.0 mi ENE 8.1 mph - N/A   Clear
10:15 AM 39.2 °F 34.2 °F 32.0 °F 75% 30.36 in 10.0 mi ENE 6.9 mph - N/A   Clear
10:35 AM 41.0 °F 35.8 °F 32.0 °F 70% 30.36 in 10.0 mi East 8.1 mph - N/A   Clear
10:55 AM 42.8 °F 39.3 °F 32.0 °F 66% 30.34 in 10.0 mi ENE 5.8 mph - N/A   Clear
11:15 AM 42.8 °F 38.6 °F 32.0 °F 66% 30.33 in 10.0 mi NE 6.9 mph - N/A   Clear
11:35 AM 42.8 °F 39.3 °F 32.0 °F 66% 30.33 in 10.0 mi NE 5.8 mph - N/A   Clear
11:55 AM 44.6 °F 40.2 °F 30.2 °F 57% 30.31 in 10.0 mi ENE 8.1 mph - N/A   Clear
12:15 PM 44.6 °F 40.2 °F 32.0 °F 61% 30.30 in 10.0 mi ENE 8.1 mph - N/A   Clear
12:35 PM 44.6 °F 41.4 °F 30.2 °F 57% 30.30 in 10.0 mi NE 5.8 mph - N/A   Clear
12:55 PM 44.6 °F 41.4 °F 30.2 °F 57% 30.30 in 10.0 mi ENE 5.8 mph - N/A   Clear
1:15 PM 44.6 °F 43.1 °F 30.2 °F 57% 30.29 in 10.0 mi East 3.5 mph - N/A   Clear
1:35 PM 44.6 °F 42.2 °F 30.2 °F 57% 30.28 in 10.0 mi ENE 4.6 mph - N/A   Clear
1:55 PM 44.6 °F 42.2 °F 30.2 °F 57% 30.28 in 10.0 mi NE 4.6 mph - N/A   Clear
2:15 PM 44.6 °F 43.1 °F 30.2 °F 57% 30.28 in 5.0 mi NNE 3.5 mph - N/A   Haze
2:35 PM 44.6 °F 43.1 °F 30.2 °F 57% 30.28 in 10.0 mi NNE 3.5 mph - N/A   Clear
2:55 PM 46.4 °F 45.2 °F 30.2 °F 53% 30.28 in 10.0 mi North 3.5 mph - N/A   Clear
3:15 PM 46.4 °F 43.5 °F 30.2 °F 53% 30.29 in 3.0 mi NNE 5.8 mph - N/A   Haze
3:35 PM 44.6 °F 42.2 °F 30.2 °F 57% 30.29 in 4.0 mi NE 4.6 mph - N/A   Haze
4:15 PM 44.6 °F 43.1 °F 32.0 °F 61% 30.29 in 10.0 mi NE 3.5 mph - N/A   Clear
4:35 PM 42.8 °F 39.3 °F 32.0 °F 66% 30.29 in 7.0 mi NE 5.8 mph - N/A   Clear
4:55 PM 42.8 °F 39.3 °F 32.0 °F 66% 30.29 in 10.0 mi NE 5.8 mph - N/A   Clear
5:15 PM 41.0 °F 38.0 °F 30.2 °F 65% 30.30 in 10.0 mi NE 4.6 mph - N/A   Clear
5:35 PM 41.0 °F 38.0 °F 30.2 °F 65% 30.30 in 10.0 mi NE 4.6 mph - N/A   Clear
5:55 PM 41.0 °F 38.0 °F 30.2 °F 65% 30.30 in 10.0 mi NE 4.6 mph - N/A   Clear
6:15 PM 39.2 °F - 30.2 °F 70% 30.30 in 7.0 mi Calm Calm - N/A   Clear
6:35 PM 41.0 °F - 30.2 °F 65% 30.30 in 10.0 mi Calm Calm - N/A   Clear
6:55 PM 37.4 °F - 30.2 °F 75% 30.30 in 7.0 mi Calm Calm - N/A   Clear
7:15 PM 39.2 °F - 30.2 °F 70% 30.30 in 5.0 mi Calm Calm - N/A   Haze
7:35 PM 37.4 °F - 30.2 °F 75% 30.30 in 10.0 mi Calm Calm - N/A   Clear
7:55 PM 35.6 °F - 30.2 °F 81% 30.30 in 10.0 mi Calm Calm - N/A   Clear
8:15 PM 35.6 °F - 32.0 °F 87% 30.30 in 10.0 mi Calm Calm - N/A   Clear
8:35 PM 35.6 °F - 32.0 °F 87% 30.29 in 10.0 mi Calm Calm - N/A   Clear
8:55 PM 35.6 °F - 32.0 °F 87% 30.29 in 10.0 mi Calm Calm - N/A   Clear
9:15 PM 35.6 °F - 32.0 °F 87% 30.29 in 10.0 mi Calm Calm - N/A   Clear
9:35 PM 35.6 °F - 32.0 °F 87% 30.28 in 10.0 mi Calm Calm - N/A   Clear
9:55 PM 35.6 °F 29.2 °F 32.0 °F 87% 30.28 in 10.0 mi East 8.1 mph - N/A   Clear
10:15 PM 35.6 °F 29.9 °F 32.0 °F 87% 30.28 in 10.0 mi East 6.9 mph - N/A   Clear
10:35 PM 33.8 °F 27.0 °F 32.0 °F 93% 30.28 in 7.0 mi East 8.1 mph - N/A   Clear
10:55 PM 33.8 °F 26.4 °F 32.0 °F 93% 30.27 in 7.0 mi East 9.2 mph - N/A   Clear
11:15 PM 33.8 °F 27.0 °F 32.0 °F 93% 30.27 in 7.0 mi ENE 8.1 mph - N/A   Clear
11:35 PM 33.8 °F 29.6 °F 32.0 °F 93% 30.27 in 10.0 mi East 4.6 mph - N/A   Clear
11:55 PM 33.8 °F - 30.2 °F 87% 30.28 in 10.0 mi Calm Calm - N/A   Clear